DELAPPROACH posted a photo:

IMG_0896

IMG_0896

20070528082400cyvrtoksfo cyvr waiting

midendian posted a photo:

20070528082400cyvrtoksfo cyvr waiting

Monday morning waiting line.

mercylessming posted a photo:

The Two Towers

Lord of the Wings: The Two Towers

Steve Hopson posted a photo:

Control Tower

The demolition and redevelopment of Austin’s Robert Mueller Airport. June 4, 2007.

Copyright 2007, Steve Hopson.

Control Tower

terminal

mercylessming posted a photo:

terminal

the terminal at LAS, which is obviously the airport in Las Vegas. its proper name is McCarran International Airport

s4xton posted a photo:

Landing Before the Storm

Landing on Runway 12L at KMSP.

Weather observation 5 minutes before the photo was taken:
KMSP 022053Z 00000KT 10SM SCT040CB BKN060 BKN200 23/14 A2966 RMK AO2 SLP041 CB VC NW-N & E-SE MOV N T02280139 56011

Weather observation 41 minutes after the photo was taken:
KMSP 022139Z 07016G29KT 10SM -TSRA BKN040CB OVC080 17/12 A2969 RMK AO2 PK WND 07029/2131 TSB34RAB34 OCNL LTGICCC NE-E TS NE-E MOV N P0000

Landing Before the Storm